CheckWX is a tool to help pilots better visualize weather data.  It is not intended as a substitute for an official pre-flight weather briefing.

06:37:20 UTC

EPLB METAR
Lublin Airport
Lublin, Poland
Current

37 mins ago

EPLB 230600Z 11015KT CAVOK 10/01 Q1024
Observed
Apr-23 @ 06:00 UTC
Wind
  • 110° at 15 KTS
Visibility
10,000+ meters
Flight Rules
VFR
Cloud Levels
  • Clear skies
Temperature
10°C / 50°F
Dewpoint
C / 34°F
Humidity
54%
Altimeter
30.24" Hg
Pressure
1023.92 hPa
Previous

1 hour ago

EPLB 230530Z 10012KT CAVOK 08/01 Q1024
Observed
Apr-23 @ 05:30 UTC
Wind
  • 100° at 12 KTS
Visibility
10,000+ meters
Flight Rules
VFR
Cloud Levels
  • Clear skies
Temperature
C / 46°F
Dewpoint
C / 34°F
Humidity
62%
Altimeter
30.24" Hg
Pressure
1023.92 hPa
Previous

2 hours ago

EPLB 230500Z 10007KT CAVOK 06/00 Q1024
Observed
Apr-23 @ 05:00 UTC
Wind
  • 100° at 7 KTS
Visibility
10,000+ meters
Flight Rules
VFR
Cloud Levels
  • Clear skies
Temperature
C / 43°F
Dewpoint
C / 32°F
Humidity
66%
Altimeter
30.24" Hg
Pressure
1023.92 hPa